Terminal Aerodrome Forecast
Issued by NWS Midland/Odessa, TX

Home | Current Version | Previous Version | Text Only | Print | Product List | Glossary On
Versions: 1 2 3 4 5 6 7 8 9 10 11 12 13 14 15 16 17 18
000
FTUS44 KMAF 201600 AAA
TAFMAF
TAF AMD
KMAF 201628Z 2016/2112 18010KT P6SM SCT250
      TEMPO 2016/2020 19010G20KT
     FM210100 17008KT P6SM SCT200=

USA.gov is the U.S. government's official web portal to all federal, state and local government web resources and services.